Adamsville, Rhode Island
Current Conditions -  °F | °C
As of 6:53 PM on Tuesday 25 Nov 2014 (Local Time) from KUUU Reporting Station
Clear Clear  
Wind Chill: 12°   Ceiling: Unl
Heat Index: 12°   Visibility: 10mi
Dew Point:   Wind: 5mph
Humidity: 47%   Direction: 250°WSW
Pressure: 30.02"   Gusts: NA
Location:  41.55°N, 71.13°W
Report Text: KUUU 252353Z AUTO 25004KT 10SM CLR 12/01 A3002 RMK AO2 SLP165 T01170006 10161 20117 51025
Loading
Personal Weather Stations






























Interactive Weather Map New forecast layout! Learn more

10-Day Weather Forecast

Advertisements
Track Severe Weather on mobile